AAL1819 KPHX-KDEN
Flight info
| Callsign | AAL1819 |
|---|---|
| Flight time | 1h 24m |
| Altitude | 37000 |
| Route | MRBIL1 JARPA CRUDD TBARR4 |
| Aircraft | B738/M-SDE2E3FGHIRWXY/LB1 |
Departure
| Time | 2026-05-06 16:28 |
|---|---|
| Airport | Phoenix Sky Harbor International Airport (KPHX) |
Arrival
| Time | 2026-05-06 17:53 |
|---|---|
| Airport | Denver International Airport (KDEN) |
| Time | Latitude | Longitude | Altitude | Speed | Heading |
|---|---|---|---|---|---|
| 2026-05-06 16:06 | 33.43808 | -112.00247 | 1123 ft | 0 kts | 133° |
| 2026-05-06 16:21 | 33.43818 | -112.00261 | 1124 ft | 2 kts | 129° |
| 2026-05-06 16:21 | 33.43828 | -112.00277 | 1113 ft | 2 kts | 123° |
| 2026-05-06 16:21 | 33.43837 | -112.00294 | 1122 ft | 2 kts | 129° |
| 2026-05-06 16:22 | 33.43843 | -112.00300 | 1121 ft | 0 kts | 175° |
| 2026-05-06 16:24 | 33.43828 | -112.00300 | 1116 ft | 5 kts | 179° |
| 2026-05-06 16:24 | 33.43782 | -112.00299 | 1118 ft | 8 kts | 179° |
| 2026-05-06 16:24 | 33.43720 | -112.00317 | 1118 ft | 11 kts | 235° |
| 2026-05-06 16:24 | 33.43667 | -112.00380 | 1119 ft | 12 kts | 189° |
| 2026-05-06 16:25 | 33.43571 | -112.00379 | 1120 ft | 16 kts | 180° |
| 2026-05-06 16:25 | 33.43450 | -112.00377 | 1120 ft | 18 kts | 182° |
| 2026-05-06 16:25 | 33.43313 | -112.00380 | 1124 ft | 21 kts | 180° |
| 2026-05-06 16:25 | 33.43214 | -112.00296 | 1126 ft | 21 kts | 90° |
| 2026-05-06 16:26 | 33.43214 | -112.00115 | 1124 ft | 23 kts | 90° |
| 2026-05-06 16:26 | 33.43214 | -111.99913 | 1121 ft | 26 kts | 90° |
| 2026-05-06 16:26 | 33.43214 | -111.99694 | 1122 ft | 26 kts | 90° |
| 2026-05-06 16:26 | 33.43213 | -111.99481 | 1126 ft | 25 kts | 90° |
| 2026-05-06 16:27 | 33.43199 | -111.99348 | 1120 ft | 8 kts | 142° |
| 2026-05-06 16:27 | 33.43145 | -111.99342 | 1134 ft | 8 kts | 180° |
| 2026-05-06 16:27 | 33.43105 | -111.99372 | 1132 ft | 8 kts | 246° |
| 2026-05-06 16:27 | 33.43103 | -111.99436 | 1132 ft | 9 kts | 270° |
| 2026-05-06 16:28 | 33.43104 | -111.99687 | 1131 ft | 63 kts | 270° |
| 2026-05-06 16:28 | 33.43104 | -112.00515 | 1130 ft | 130 kts | 270° |
| 2026-05-06 16:28 | 33.43100 | -112.01832 | 1219 ft | 174 kts | 271° |
| 2026-05-06 16:28 | 33.43127 | -112.03301 | 1943 ft | 175 kts | 271° |
| 2026-05-06 16:29 | 33.43193 | -112.04706 | 2852 ft | 164 kts | 273° |
| 2026-05-06 16:29 | 33.43242 | -112.06104 | 3393 ft | 182 kts | 272° |
| 2026-05-06 16:29 | 33.43262 | -112.07764 | 3661 ft | 210 kts | 271° |
| 2026-05-06 16:29 | 33.43283 | -112.09591 | 3854 ft | 233 kts | 271° |
| 2026-05-06 16:30 | 33.43322 | -112.11587 | 4286 ft | 244 kts | 272° |
| 2026-05-06 16:30 | 33.43355 | -112.12970 | 4709 ft | 248 kts | 272° |
| 2026-05-06 16:30 | 33.43428 | -112.15710 | 5800 ft | 248 kts | 273° |
| 2026-05-06 16:30 | 33.43827 | -112.17717 | 6513 ft | 253 kts | 301° |
| 2026-05-06 16:31 | 33.45061 | -112.19190 | 7248 ft | 253 kts | 333° |
| 2026-05-06 16:31 | 33.46743 | -112.19738 | 8050 ft | 251 kts | 357° |
| 2026-05-06 16:31 | 33.48492 | -112.19759 | 8841 ft | 252 kts | 2° |
| 2026-05-06 16:31 | 33.50252 | -112.19702 | 9634 ft | 254 kts | 3° |
| 2026-05-06 16:32 | 33.52015 | -112.19650 | 10379 ft | 256 kts | 2° |
| 2026-05-06 16:32 | 33.53809 | -112.19463 | 10926 ft | 266 kts | 12° |
| 2026-05-06 16:32 | 33.55688 | -112.18912 | 11106 ft | 290 kts | 15° |
| 2026-05-06 16:32 | 33.57720 | -112.18265 | 11284 ft | 314 kts | 15° |
| 2026-05-06 16:33 | 33.59903 | -112.17588 | 11561 ft | 332 kts | 16° |
| 2026-05-06 16:33 | 33.62025 | -112.16404 | 12102 ft | 341 kts | 36° |
| 2026-05-06 16:33 | 33.63777 | -112.14451 | 12827 ft | 345 kts | 46° |
| 2026-05-06 16:34 | 33.67065 | -112.10174 | 14191 ft | 356 kts | 46° |
| 2026-05-06 16:34 | 33.68744 | -112.07984 | 14914 ft | 358 kts | 46° |
| 2026-05-06 16:34 | 33.70443 | -112.05792 | 15680 ft | 359 kts | 46° |
| 2026-05-06 16:34 | 33.72163 | -112.03594 | 16419 ft | 362 kts | 46° |
| 2026-05-06 16:35 | 33.73901 | -112.01379 | 17147 ft | 365 kts | 46° |
| 2026-05-06 16:35 | 33.75621 | -111.99118 | 17784 ft | 369 kts | 49° |
| 2026-05-06 16:35 | 33.77232 | -111.96686 | 18452 ft | 373 kts | 52° |
| 2026-05-06 16:35 | 33.78793 | -111.94184 | 19076 ft | 375 kts | 52° |
| 2026-05-06 16:36 | 33.80348 | -111.91662 | 19748 ft | 376 kts | 52° |
| 2026-05-06 16:36 | 33.81383 | -111.89987 | 20185 ft | 377 kts | 52° |
| 2026-05-06 16:36 | 33.82955 | -111.87460 | 20812 ft | 378 kts | 52° |
| 2026-05-06 16:36 | 33.84549 | -111.84916 | 21423 ft | 381 kts | 52° |
| 2026-05-06 16:37 | 33.86151 | -111.82370 | 22022 ft | 383 kts | 52° |
| 2026-05-06 16:37 | 33.87764 | -111.79812 | 22628 ft | 385 kts | 52° |
| 2026-05-06 16:37 | 33.89921 | -111.76395 | 23330 ft | 389 kts | 52° |
| 2026-05-06 16:37 | 33.91565 | -111.73789 | 23828 ft | 392 kts | 52° |
| 2026-05-06 16:38 | 33.92682 | -111.72018 | 24135 ft | 394 kts | 52° |
| 2026-05-06 16:38 | 33.94345 | -111.69378 | 24561 ft | 397 kts | 52° |
| 2026-05-06 16:38 | 33.96024 | -111.66711 | 24980 ft | 401 kts | 52° |
| 2026-05-06 16:38 | 33.97717 | -111.64021 | 25386 ft | 404 kts | 52° |
| 2026-05-06 16:39 | 33.99423 | -111.61317 | 25801 ft | 407 kts | 50° |
| 2026-05-06 16:39 | 34.01412 | -111.58961 | 26148 ft | 410 kts | 34° |
| 2026-05-06 16:39 | 34.03821 | -111.57112 | 26573 ft | 412 kts | 32° |
| 2026-05-06 16:39 | 34.06271 | -111.55285 | 26992 ft | 415 kts | 32° |
| 2026-05-06 16:40 | 34.08737 | -111.53441 | 27368 ft | 419 kts | 32° |
| 2026-05-06 16:40 | 34.11188 | -111.51594 | 27754 ft | 422 kts | 32° |
| 2026-05-06 16:40 | 34.13684 | -111.49696 | 28127 ft | 425 kts | 32° |
| 2026-05-06 16:40 | 34.16187 | -111.47782 | 28509 ft | 428 kts | 32° |
| 2026-05-06 16:41 | 34.18707 | -111.45847 | 28879 ft | 430 kts | 32° |
| 2026-05-06 16:41 | 34.21246 | -111.43891 | 29234 ft | 433 kts | 33° |
| 2026-05-06 16:41 | 34.23794 | -111.41927 | 29566 ft | 436 kts | 33° |
| 2026-05-06 16:41 | 34.26364 | -111.39943 | 29893 ft | 439 kts | 33° |
| 2026-05-06 16:42 | 34.28952 | -111.37945 | 30207 ft | 441 kts | 33° |
| 2026-05-06 16:42 | 34.31543 | -111.35943 | 30442 ft | 445 kts | 32° |
| 2026-05-06 16:42 | 34.34163 | -111.33918 | 30669 ft | 448 kts | 32° |
| 2026-05-06 16:42 | 34.36789 | -111.31887 | 30956 ft | 449 kts | 32° |
| 2026-05-06 16:43 | 34.39424 | -111.29846 | 31195 ft | 451 kts | 32° |
| 2026-05-06 16:43 | 34.42076 | -111.27792 | 31449 ft | 452 kts | 32° |
| 2026-05-06 16:43 | 34.44726 | -111.25737 | 31751 ft | 453 kts | 32° |
| 2026-05-06 16:43 | 34.47382 | -111.23676 | 31978 ft | 454 kts | 32° |
| 2026-05-06 16:44 | 34.50044 | -111.21608 | 32241 ft | 455 kts | 32° |
| 2026-05-06 16:44 | 34.52721 | -111.19527 | 32509 ft | 457 kts | 32° |
| 2026-05-06 16:44 | 34.55401 | -111.17442 | 32792 ft | 458 kts | 31° |
| 2026-05-06 16:44 | 34.58050 | -111.15380 | 33065 ft | 459 kts | 31° |
| 2026-05-06 16:45 | 34.60739 | -111.13287 | 33324 ft | 460 kts | 31° |
| 2026-05-06 16:45 | 34.63377 | -111.11061 | 33720 ft | 458 kts | 39° |
| 2026-05-06 16:45 | 34.65695 | -111.08460 | 34304 ft | 453 kts | 43° |
| 2026-05-06 16:45 | 34.67928 | -111.05729 | 34409 ft | 457 kts | 44° |
| 2026-05-06 16:46 | 34.70149 | -111.02933 | 34498 ft | 462 kts | 44° |
| 2026-05-06 16:46 | 34.72392 | -111.00108 | 34656 ft | 464 kts | 44° |
| 2026-05-06 16:46 | 34.74492 | -110.97488 | 34888 ft | 464 kts | 44° |
| 2026-05-06 16:46 | 34.76758 | -110.94690 | 35110 ft | 465 kts | 44° |
| 2026-05-06 16:47 | 34.79046 | -110.91889 | 35291 ft | 467 kts | 43° |
| 2026-05-06 16:47 | 34.81341 | -110.89096 | 35493 ft | 468 kts | 43° |
| 2026-05-06 16:47 | 34.83645 | -110.86296 | 35699 ft | 469 kts | 43° |
| 2026-05-06 16:47 | 34.85960 | -110.83486 | 35895 ft | 470 kts | 43° |
| 2026-05-06 16:48 | 34.88283 | -110.80663 | 36089 ft | 472 kts | 43° |
| 2026-05-06 16:48 | 34.90608 | -110.77834 | 36197 ft | 475 kts | 43° |
| 2026-05-06 16:48 | 34.92958 | -110.74972 | 36370 ft | 477 kts | 43° |
| 2026-05-06 16:48 | 34.95287 | -110.72130 | 36842 ft | 471 kts | 43° |
| 2026-05-06 16:49 | 34.97604 | -110.69300 | 37053 ft | 472 kts | 43° |
| 2026-05-06 16:49 | 35.02240 | -110.63633 | 37119 ft | 479 kts | 43° |
| 2026-05-06 16:49 | 35.04596 | -110.60750 | 37017 ft | 479 kts | 43° |
| 2026-05-06 16:50 | 35.06948 | -110.57867 | 37009 ft | 478 kts | 43° |
| 2026-05-06 16:50 | 35.11633 | -110.52118 | 37009 ft | 477 kts | 43° |
| 2026-05-06 16:51 | 35.16303 | -110.46377 | 37018 ft | 475 kts | 43° |
| 2026-05-06 16:51 | 35.20968 | -110.40634 | 37025 ft | 475 kts | 43° |
| 2026-05-06 16:52 | 35.25625 | -110.34892 | 37020 ft | 475 kts | 43° |
| 2026-05-06 16:52 | 35.30254 | -110.29173 | 37007 ft | 475 kts | 43° |
| 2026-05-06 16:53 | 35.34893 | -110.23432 | 37007 ft | 474 kts | 43° |
| 2026-05-06 16:53 | 35.39530 | -110.17683 | 37004 ft | 473 kts | 43° |
| 2026-05-06 16:54 | 35.44165 | -110.11926 | 37011 ft | 473 kts | 43° |
| 2026-05-06 16:54 | 35.48791 | -110.06173 | 37015 ft | 474 kts | 43° |
| 2026-05-06 16:55 | 35.53420 | -110.00404 | 37022 ft | 476 kts | 43° |
| 2026-05-06 16:55 | 35.57920 | -109.94786 | 37010 ft | 477 kts | 43° |
| 2026-05-06 16:56 | 35.62581 | -109.88956 | 36994 ft | 478 kts | 43° |
| 2026-05-06 16:56 | 35.67232 | -109.83129 | 36982 ft | 477 kts | 43° |
| 2026-05-06 16:57 | 35.71888 | -109.77358 | 36988 ft | 476 kts | 40° |
| 2026-05-06 16:57 | 35.76811 | -109.71923 | 36990 ft | 475 kts | 38° |
| 2026-05-06 16:58 | 35.81814 | -109.66595 | 36976 ft | 475 kts | 38° |
| 2026-05-06 16:58 | 35.86792 | -109.61231 | 36978 ft | 474 kts | 38° |
| 2026-05-06 16:59 | 35.91729 | -109.55843 | 36958 ft | 473 kts | 38° |
| 2026-05-06 16:59 | 35.96639 | -109.50453 | 36958 ft | 471 kts | 38° |
| 2026-05-06 17:00 | 36.01491 | -109.45116 | 36966 ft | 470 kts | 38° |
| 2026-05-06 17:00 | 36.06369 | -109.39745 | 36967 ft | 470 kts | 38° |
| 2026-05-06 17:01 | 36.11252 | -109.34361 | 36962 ft | 471 kts | 38° |
| 2026-05-06 17:01 | 36.16148 | -109.28954 | 36953 ft | 471 kts | 38° |
| 2026-05-06 17:02 | 36.21037 | -109.23543 | 36946 ft | 471 kts | 38° |
| 2026-05-06 17:02 | 36.25913 | -109.18137 | 36945 ft | 470 kts | 38° |
| 2026-05-06 17:03 | 36.30804 | -109.12706 | 36951 ft | 470 kts | 38° |
| 2026-05-06 17:03 | 36.35643 | -109.07323 | 36921 ft | 470 kts | 38° |
| 2026-05-06 17:04 | 36.40513 | -109.01895 | 36930 ft | 470 kts | 38° |
| 2026-05-06 17:04 | 36.45219 | -108.96643 | 36907 ft | 471 kts | 38° |
| 2026-05-06 17:05 | 36.50080 | -108.91208 | 36901 ft | 470 kts | 38° |
| 2026-05-06 17:05 | 36.54936 | -108.85768 | 36902 ft | 470 kts | 38° |
| 2026-05-06 17:06 | 36.59788 | -108.80322 | 36893 ft | 469 kts | 38° |
| 2026-05-06 17:06 | 36.64639 | -108.74870 | 36897 ft | 470 kts | 38° |
| 2026-05-06 17:07 | 36.69498 | -108.69398 | 36940 ft | 470 kts | 38° |
| 2026-05-06 17:07 | 36.74354 | -108.63920 | 36928 ft | 471 kts | 38° |
| 2026-05-06 17:08 | 36.79221 | -108.58419 | 36942 ft | 472 kts | 38° |
| 2026-05-06 17:08 | 36.84086 | -108.52910 | 36973 ft | 472 kts | 38° |
| 2026-05-06 17:09 | 36.88944 | -108.47400 | 36969 ft | 472 kts | 38° |
| 2026-05-06 17:09 | 36.93770 | -108.41917 | 37008 ft | 471 kts | 38° |
| 2026-05-06 17:10 | 36.98605 | -108.36412 | 36985 ft | 469 kts | 38° |
| 2026-05-06 17:10 | 37.03424 | -108.30915 | 36965 ft | 468 kts | 38° |
| 2026-05-06 17:11 | 37.08228 | -108.25427 | 36942 ft | 466 kts | 38° |
| 2026-05-06 17:11 | 37.13001 | -108.19964 | 36946 ft | 464 kts | 38° |
| 2026-05-06 17:12 | 37.17756 | -108.14513 | 36956 ft | 462 kts | 38° |
| 2026-05-06 17:12 | 37.22496 | -108.09070 | 36953 ft | 461 kts | 38° |
| 2026-05-06 17:13 | 37.27221 | -108.03633 | 36973 ft | 461 kts | 38° |
| 2026-05-06 17:13 | 37.31756 | -107.98406 | 36959 ft | 460 kts | 38° |
| 2026-05-06 17:14 | 37.36463 | -107.92971 | 36962 ft | 459 kts | 38° |
| 2026-05-06 17:14 | 37.41144 | -107.87556 | 36972 ft | 459 kts | 38° |
| 2026-05-06 17:15 | 37.45842 | -107.82113 | 36986 ft | 459 kts | 39° |
| 2026-05-06 17:15 | 37.50542 | -107.76658 | 36995 ft | 459 kts | 39° |
| 2026-05-06 17:16 | 37.54441 | -107.72123 | 37006 ft | 460 kts | 37° |
| 2026-05-06 17:16 | 37.59948 | -107.65707 | 36977 ft | 461 kts | 38° |
| 2026-05-06 17:17 | 37.63869 | -107.61130 | 36976 ft | 462 kts | 38° |
| 2026-05-06 17:17 | 37.68588 | -107.55620 | 36980 ft | 461 kts | 38° |
| 2026-05-06 17:18 | 37.73292 | -107.50108 | 36985 ft | 461 kts | 38° |
| 2026-05-06 17:18 | 37.78001 | -107.44575 | 36958 ft | 462 kts | 38° |
| 2026-05-06 17:19 | 37.82706 | -107.39035 | 36997 ft | 461 kts | 38° |
| 2026-05-06 17:19 | 37.87420 | -107.33484 | 36967 ft | 461 kts | 38° |
| 2026-05-06 17:20 | 37.92073 | -107.27974 | 36949 ft | 462 kts | 39° |
| 2026-05-06 17:20 | 37.96761 | -107.22419 | 36963 ft | 461 kts | 39° |
| 2026-05-06 17:21 | 38.01439 | -107.16869 | 36953 ft | 461 kts | 39° |
| 2026-05-06 17:21 | 38.06139 | -107.11281 | 36934 ft | 462 kts | 39° |
| 2026-05-06 17:22 | 38.10823 | -107.05701 | 36964 ft | 462 kts | 39° |
| 2026-05-06 17:22 | 38.15496 | -107.00067 | 36941 ft | 464 kts | 41° |
| 2026-05-06 17:23 | 38.19590 | -106.94086 | 36957 ft | 468 kts | 47° |
| 2026-05-06 17:23 | 38.23675 | -106.87622 | 36961 ft | 469 kts | 47° |
| 2026-05-06 17:24 | 38.27802 | -106.81194 | 36932 ft | 469 kts | 46° |
| 2026-05-06 17:24 | 38.31979 | -106.74800 | 36922 ft | 470 kts | 46° |
| 2026-05-06 17:25 | 38.36175 | -106.68400 | 36937 ft | 472 kts | 46° |
| 2026-05-06 17:25 | 38.40380 | -106.61974 | 36940 ft | 474 kts | 46° |
| 2026-05-06 17:25 | 38.42492 | -106.58738 | 36789 ft | 477 kts | 46° |
| 2026-05-06 17:26 | 38.44625 | -106.55468 | 36247 ft | 480 kts | 46° |
| 2026-05-06 17:26 | 38.46753 | -106.52198 | 35695 ft | 477 kts | 46° |
| 2026-05-06 17:26 | 38.48871 | -106.48939 | 35175 ft | 474 kts | 46° |
| 2026-05-06 17:26 | 38.50961 | -106.45718 | 34811 ft | 469 kts | 46° |
| 2026-05-06 17:27 | 38.53009 | -106.42561 | 34387 ft | 465 kts | 46° |
| 2026-05-06 17:27 | 38.55060 | -106.39399 | 33958 ft | 460 kts | 46° |
| 2026-05-06 17:27 | 38.57091 | -106.36265 | 33478 ft | 456 kts | 46° |
| 2026-05-06 17:27 | 38.59104 | -106.33153 | 33041 ft | 452 kts | 46° |
| 2026-05-06 17:28 | 38.61101 | -106.30066 | 32603 ft | 448 kts | 46° |
| 2026-05-06 17:28 | 38.63078 | -106.27008 | 32169 ft | 444 kts | 46° |
| 2026-05-06 17:28 | 38.65041 | -106.23968 | 31743 ft | 440 kts | 46° |
| 2026-05-06 17:28 | 38.66982 | -106.20976 | 31439 ft | 434 kts | 46° |
| 2026-05-06 17:29 | 38.68907 | -106.18033 | 31054 ft | 430 kts | 46° |
| 2026-05-06 17:29 | 38.70825 | -106.15110 | 30654 ft | 426 kts | 46° |
| 2026-05-06 17:29 | 38.72719 | -106.12221 | 30252 ft | 424 kts | 46° |
| 2026-05-06 17:29 | 38.74649 | -106.09277 | 29788 ft | 439 kts | 46° |
| 2026-05-06 17:30 | 38.76638 | -106.06241 | 29290 ft | 448 kts | 46° |
| 2026-05-06 17:30 | 38.78634 | -106.03179 | 28788 ft | 446 kts | 46° |
| 2026-05-06 17:30 | 38.80611 | -106.00136 | 28331 ft | 441 kts | 46° |
| 2026-05-06 17:30 | 38.82345 | -105.97466 | 27912 ft | 439 kts | 47° |
| 2026-05-06 17:31 | 38.84296 | -105.94463 | 27456 ft | 437 kts | 47° |
| 2026-05-06 17:31 | 38.86246 | -105.91462 | 26982 ft | 436 kts | 47° |
| 2026-05-06 17:31 | 38.88183 | -105.88477 | 26537 ft | 434 kts | 47° |
| 2026-05-06 17:31 | 38.90111 | -105.85493 | 25982 ft | 434 kts | 47° |
| 2026-05-06 17:32 | 38.92025 | -105.82514 | 25521 ft | 431 kts | 47° |
| 2026-05-06 17:32 | 38.93902 | -105.79583 | 25060 ft | 427 kts | 47° |
| 2026-05-06 17:32 | 38.95786 | -105.76638 | 24659 ft | 424 kts | 48° |
| 2026-05-06 17:32 | 38.97658 | -105.73714 | 24192 ft | 421 kts | 48° |
| 2026-05-06 17:33 | 38.99513 | -105.70815 | 23747 ft | 419 kts | 48° |
| 2026-05-06 17:33 | 39.01348 | -105.67946 | 23245 ft | 416 kts | 48° |
| 2026-05-06 17:33 | 39.03177 | -105.65092 | 22787 ft | 412 kts | 48° |
| 2026-05-06 17:33 | 39.04994 | -105.62270 | 22354 ft | 408 kts | 48° |
| 2026-05-06 17:34 | 39.06790 | -105.59482 | 21935 ft | 403 kts | 48° |
| 2026-05-06 17:34 | 39.08570 | -105.56717 | 21525 ft | 399 kts | 48° |
| 2026-05-06 17:34 | 39.10332 | -105.53974 | 21114 ft | 394 kts | 48° |
| 2026-05-06 17:34 | 39.12068 | -105.51270 | 20720 ft | 390 kts | 48° |
| 2026-05-06 17:35 | 39.13789 | -105.48586 | 20333 ft | 386 kts | 48° |
| 2026-05-06 17:35 | 39.15486 | -105.45931 | 19966 ft | 381 kts | 49° |
| 2026-05-06 17:35 | 39.17146 | -105.43305 | 19612 ft | 374 kts | 49° |
| 2026-05-06 17:36 | 39.20348 | -105.38205 | 18861 ft | 356 kts | 49° |
| 2026-05-06 17:36 | 39.21885 | -105.35754 | 18491 ft | 348 kts | 49° |
| 2026-05-06 17:36 | 39.23395 | -105.33350 | 18109 ft | 340 kts | 49° |
| 2026-05-06 17:36 | 39.24874 | -105.30999 | 17620 ft | 337 kts | 49° |
| 2026-05-06 17:37 | 39.26340 | -105.28664 | 17310 ft | 329 kts | 49° |
| 2026-05-06 17:37 | 39.27750 | -105.26392 | 17149 ft | 320 kts | 52° |
| 2026-05-06 17:37 | 39.28700 | -105.23785 | 16874 ft | 329 kts | 77° |
| 2026-05-06 17:37 | 39.29087 | -105.20857 | 16601 ft | 334 kts | 81° |
| 2026-05-06 17:38 | 39.29415 | -105.17883 | 16243 ft | 332 kts | 82° |
| 2026-05-06 17:38 | 39.29733 | -105.14956 | 15898 ft | 325 kts | 81° |
| 2026-05-06 17:38 | 39.30046 | -105.12140 | 15574 ft | 319 kts | 81° |
| 2026-05-06 17:38 | 39.30369 | -105.09325 | 15270 ft | 315 kts | 81° |
| 2026-05-06 17:39 | 39.30695 | -105.06533 | 14957 ft | 314 kts | 81° |
| 2026-05-06 17:39 | 39.31019 | -105.03763 | 14760 ft | 308 kts | 81° |
| 2026-05-06 17:39 | 39.31336 | -105.01053 | 14619 ft | 303 kts | 81° |
| 2026-05-06 17:39 | 39.31698 | -104.98563 | 14506 ft | 300 kts | 76° |
| 2026-05-06 17:40 | 39.32203 | -104.95914 | 14402 ft | 302 kts | 75° |
| 2026-05-06 17:40 | 39.32715 | -104.93293 | 14280 ft | 305 kts | 76° |
| 2026-05-06 17:40 | 39.33219 | -104.90648 | 14142 ft | 301 kts | 76° |
| 2026-05-06 17:40 | 39.33708 | -104.88046 | 13984 ft | 295 kts | 75° |
| 2026-05-06 17:41 | 39.34284 | -104.85513 | 13683 ft | 292 kts | 71° |
| 2026-05-06 17:41 | 39.34919 | -104.83059 | 13382 ft | 283 kts | 71° |
| 2026-05-06 17:41 | 39.35535 | -104.80679 | 13139 ft | 275 kts | 71° |
| 2026-05-06 17:41 | 39.36130 | -104.78361 | 12845 ft | 267 kts | 71° |
| 2026-05-06 17:42 | 39.36711 | -104.76105 | 12542 ft | 262 kts | 71° |
| 2026-05-06 17:42 | 39.37296 | -104.73886 | 12223 ft | 259 kts | 66° |
| 2026-05-06 17:42 | 39.38360 | -104.72079 | 11899 ft | 252 kts | 34° |
| 2026-05-06 17:42 | 39.39825 | -104.70951 | 11639 ft | 247 kts | 26° |
| 2026-05-06 17:43 | 39.41385 | -104.69963 | 11330 ft | 246 kts | 25° |
| 2026-05-06 17:43 | 39.42976 | -104.69183 | 11006 ft | 243 kts | 8° |
| 2026-05-06 17:43 | 39.44628 | -104.69118 | 10764 ft | 232 kts | 357° |
| 2026-05-06 17:43 | 39.46195 | -104.69180 | 10455 ft | 224 kts | 359° |
| 2026-05-06 17:44 | 39.47684 | -104.69175 | 10183 ft | 217 kts | 1° |
| 2026-05-06 17:44 | 39.49175 | -104.69153 | 10033 ft | 214 kts | 1° |
| 2026-05-06 17:44 | 39.50632 | -104.69134 | 10006 ft | 208 kts | 1° |
| 2026-05-06 17:44 | 39.52042 | -104.69118 | 9989 ft | 197 kts | 1° |
| 2026-05-06 17:45 | 39.53409 | -104.69103 | 9997 ft | 203 kts | 1° |
| 2026-05-06 17:45 | 39.54892 | -104.69085 | 10010 ft | 220 kts | 1° |
| 2026-05-06 17:45 | 39.56435 | -104.69067 | 9995 ft | 221 kts | 1° |
| 2026-05-06 17:45 | 39.57961 | -104.69050 | 9978 ft | 218 kts | 0° |
| 2026-05-06 17:46 | 39.59460 | -104.69032 | 9960 ft | 212 kts | 1° |
| 2026-05-06 17:46 | 39.60880 | -104.69016 | 9951 ft | 194 kts | 1° |
| 2026-05-06 17:46 | 39.62159 | -104.69001 | 9998 ft | 177 kts | 1° |
| 2026-05-06 17:46 | 39.63361 | -104.68987 | 9815 ft | 168 kts | 1° |
| 2026-05-06 17:47 | 39.64545 | -104.68973 | 9566 ft | 167 kts | 0° |
| 2026-05-06 17:47 | 39.65692 | -104.68960 | 9346 ft | 163 kts | 1° |
| 2026-05-06 17:47 | 39.66826 | -104.68946 | 9143 ft | 162 kts | 1° |
| 2026-05-06 17:47 | 39.67956 | -104.68933 | 8929 ft | 162 kts | 1° |
| 2026-05-06 17:48 | 39.69083 | -104.68920 | 8703 ft | 161 kts | 1° |
| 2026-05-06 17:48 | 39.70201 | -104.68907 | 8504 ft | 160 kts | 1° |
| 2026-05-06 17:48 | 39.71300 | -104.68894 | 8292 ft | 160 kts | 1° |
| 2026-05-06 17:48 | 39.72411 | -104.68881 | 8082 ft | 159 kts | 1° |
| 2026-05-06 17:49 | 39.73533 | -104.68868 | 7869 ft | 157 kts | 1° |
| 2026-05-06 17:49 | 39.74631 | -104.68855 | 7650 ft | 157 kts | 1° |
| 2026-05-06 17:49 | 39.75707 | -104.68843 | 7458 ft | 156 kts | 1° |
| 2026-05-06 17:49 | 39.76791 | -104.68830 | 7249 ft | 154 kts | 1° |
| 2026-05-06 17:50 | 39.77868 | -104.68818 | 7089 ft | 155 kts | 1° |
| 2026-05-06 17:50 | 39.78949 | -104.68805 | 6873 ft | 155 kts | 1° |
| 2026-05-06 17:50 | 39.80022 | -104.68792 | 6672 ft | 152 kts | 1° |
| 2026-05-06 17:50 | 39.81072 | -104.68781 | 6437 ft | 150 kts | 1° |
| 2026-05-06 17:51 | 39.81760 | -104.68773 | 6301 ft | 149 kts | 2° |
| 2026-05-06 17:51 | 39.83129 | -104.68756 | 6065 ft | 145 kts | 2° |
| 2026-05-06 17:51 | 39.84153 | -104.68744 | 5872 ft | 145 kts | 2° |
| 2026-05-06 17:51 | 39.84833 | -104.68736 | 5739 ft | 145 kts | 2° |
| 2026-05-06 17:52 | 39.85838 | -104.68725 | 5563 ft | 143 kts | 2° |
| 2026-05-06 17:52 | 39.86817 | -104.68713 | 5387 ft | 141 kts | 1° |
| 2026-05-06 17:52 | 39.87726 | -104.68707 | 5361 ft | 120 kts | 0° |
| 2026-05-06 17:52 | 39.88346 | -104.68695 | 5360 ft | 56 kts | 1° |
| 2026-05-06 17:53 | 39.88667 | -104.68682 | 5359 ft | 41 kts | 7° |
| 2026-05-06 17:53 | 39.88868 | -104.68587 | 5358 ft | 17 kts | 28° |
| 2026-05-06 17:53 | 39.88862 | -104.68482 | 5359 ft | 12 kts | 162° |
| 2026-05-06 17:53 | 39.88782 | -104.68476 | 5359 ft | 11 kts | 179° |
| 2026-05-06 17:54 | 39.88706 | -104.68478 | 5359 ft | 11 kts | 182° |
| 2026-05-06 17:54 | 39.88632 | -104.68478 | 5359 ft | 10 kts | 181° |
| 2026-05-06 17:54 | 39.88560 | -104.68479 | 5359 ft | 11 kts | 181° |
| 2026-05-06 17:54 | 39.88477 | -104.68481 | 5360 ft | 13 kts | 179° |
| 2026-05-06 17:55 | 39.88382 | -104.68480 | 5360 ft | 14 kts | 179° |
| 2026-05-06 17:55 | 39.88279 | -104.68480 | 5360 ft | 15 kts | 181° |
| 2026-05-06 17:55 | 39.88179 | -104.68482 | 5360 ft | 14 kts | 181° |
| 2026-05-06 17:55 | 39.88083 | -104.68485 | 5360 ft | 13 kts | 181° |
| 2026-05-06 17:56 | 39.87991 | -104.68487 | 5360 ft | 13 kts | 181° |
| 2026-05-06 17:56 | 39.87905 | -104.68488 | 5360 ft | 14 kts | 179° |
| 2026-05-06 17:56 | 39.87817 | -104.68488 | 5360 ft | 13 kts | 180° |
| 2026-05-06 17:56 | 39.87726 | -104.68489 | 5360 ft | 13 kts | 180° |
| 2026-05-06 17:57 | 39.87617 | -104.68490 | 5360 ft | 17 kts | 180° |
| 2026-05-06 17:57 | 39.87484 | -104.68492 | 5361 ft | 22 kts | 180° |
| 2026-05-06 17:57 | 39.87331 | -104.68495 | 5361 ft | 22 kts | 180° |
| 2026-05-06 17:57 | 39.87183 | -104.68495 | 5361 ft | 21 kts | 180° |
| 2026-05-06 17:58 | 39.87037 | -104.68496 | 5361 ft | 21 kts | 180° |
| 2026-05-06 17:58 | 39.86896 | -104.68498 | 5361 ft | 20 kts | 181° |
| 2026-05-06 17:58 | 39.86772 | -104.68501 | 5361 ft | 19 kts | 179° |
| 2026-05-06 17:58 | 39.86640 | -104.68502 | 5362 ft | 19 kts | 180° |
| 2026-05-06 17:59 | 39.86553 | -104.68497 | 5362 ft | 8 kts | 169° |
| 2026-05-06 17:59 | 39.86537 | -104.68492 | 5362 ft | 0 kts | 165° |
| 2026-05-06 18:00 | 39.86504 | -104.68494 | 5362 ft | 11 kts | 188° |
| 2026-05-06 18:00 | 39.86385 | -104.68502 | 5361 ft | 23 kts | 184° |
| 2026-05-06 18:00 | 39.86236 | -104.68504 | 5365 ft | 21 kts | 181° |
| 2026-05-06 18:00 | 39.86139 | -104.68425 | 5368 ft | 19 kts | 93° |
| 2026-05-06 18:01 | 39.86137 | -104.68258 | 5370 ft | 18 kts | 91° |
| 2026-05-06 18:01 | 39.86137 | -104.68096 | 5371 ft | 18 kts | 90° |
| 2026-05-06 18:01 | 39.86136 | -104.67941 | 5374 ft | 17 kts | 90° |
| 2026-05-06 18:01 | 39.86136 | -104.67838 | 5375 ft | 14 kts | 85° |
| 2026-05-06 18:02 | 39.86195 | -104.67738 | 5371 ft | 13 kts | 77° |
| 2026-05-06 18:02 | 39.86194 | -104.67651 | 5376 ft | 9 kts | 91° |
| 2026-05-06 18:02 | 39.86213 | -104.67598 | 5373 ft | 7 kts | 29° |
| 2026-05-06 18:02 | 39.86238 | -104.67582 | 5375 ft | 0 kts | 23° |
| 2026-05-06 18:03 | 39.86242 | -104.67579 | 5375 ft | 3 kts | 24° |
| 2026-05-06 18:03 | 39.86254 | -104.67572 | 5373 ft | 0 kts | 25° |